createdAt,value
2018-08-03T00:02:15.841Z,21.50
2018-08-03T00:04:51.781Z,21.60
2018-08-03T00:07:27.194Z,21.60
2018-08-03T00:10:02.952Z,21.50
2018-08-03T00:12:38.190Z,21.50
2018-08-03T00:15:14.105Z,21.20
2018-08-03T00:17:49.492Z,21.30
2018-08-03T00:20:25.113Z,21.20
2018-08-03T00:23:00.660Z,21.00
2018-08-03T00:25:35.927Z,20.90
2018-08-03T00:28:11.261Z,21.00
2018-08-03T00:30:47.014Z,20.90
2018-08-03T00:33:23.066Z,20.80
2018-08-03T00:35:58.332Z,20.90
2018-08-03T00:38:33.625Z,20.90
2018-08-03T00:41:09.153Z,20.70
2018-08-03T00:43:44.496Z,20.80
2018-08-03T00:46:19.840Z,20.80
2018-08-03T00:48:55.193Z,20.80
2018-08-03T00:51:30.650Z,20.70
2018-08-03T00:54:06.990Z,20.80
2018-08-03T00:56:42.268Z,20.80
2018-08-03T00:59:17.585Z,20.80
2018-08-03T01:01:52.924Z,20.80
2018-08-03T01:04:28.343Z,20.70
2018-08-03T01:07:03.588Z,20.80
2018-08-03T01:09:38.973Z,20.60
2018-08-03T01:12:14.360Z,20.70
2018-08-03T01:14:50.126Z,20.70
2018-08-03T01:17:25.542Z,20.50
2018-08-03T01:20:00.905Z,20.40
2018-08-03T01:22:36.331Z,20.30
2018-08-03T01:25:11.718Z,20.20
2018-08-03T01:27:47.213Z,20.20
2018-08-03T01:30:22.648Z,20.20
2018-08-03T01:32:58.002Z,20.20
2018-08-03T01:35:33.536Z,20.30
2018-08-03T01:38:08.832Z,20.30
2018-08-03T01:40:45.292Z,20.40
2018-08-03T01:43:20.575Z,20.30
2018-08-03T01:45:55.600Z,20.20
2018-08-03T01:48:31.047Z,20.00
2018-08-03T01:51:06.690Z,19.90
2018-08-03T01:53:41.797Z,19.80
2018-08-03T01:56:17.273Z,19.90
2018-08-03T01:58:53.035Z,19.90
2018-08-03T02:01:28.576Z,19.90
2018-08-03T02:04:04.116Z,19.80
2018-08-03T02:06:40.275Z,19.90
2018-08-03T02:09:15.532Z,19.90
2018-08-03T02:11:50.235Z,19.80
2018-08-03T02:14:25.080Z,19.70
2018-08-03T02:17:00.422Z,19.70
2018-08-03T02:19:35.150Z,19.80
2018-08-03T02:22:09.858Z,19.60
2018-08-03T02:24:44.856Z,19.70
2018-08-03T02:27:20.277Z,19.70
2018-08-03T02:29:55.394Z,19.80
2018-08-03T02:32:30.208Z,19.70
2018-08-03T02:35:05.906Z,19.60
2018-08-03T02:37:41.299Z,19.70
2018-08-03T02:40:16.119Z,19.60
2018-08-03T02:42:50.798Z,19.60
2018-08-03T02:45:26.800Z,19.50
2018-08-03T02:48:01.622Z,19.50
2018-08-03T02:50:36.481Z,19.60
2018-08-03T02:53:11.320Z,19.50
2018-08-03T02:55:46.109Z,19.30
2018-08-03T02:58:20.866Z,19.30
2018-08-03T03:00:55.678Z,19.30
2018-08-03T03:03:30.755Z,19.20
2018-08-03T03:06:06.252Z,19.10
2018-08-03T03:08:41.765Z,19.00
2018-08-03T03:11:16.537Z,19.10
2018-08-03T03:13:51.321Z,18.90
2018-08-03T03:16:26.094Z,18.90
2018-08-03T03:19:01.922Z,18.80
2018-08-03T03:21:36.927Z,18.80
2018-08-03T03:24:11.714Z,18.80
2018-08-03T03:26:47.452Z,18.80
2018-08-03T03:29:22.466Z,18.80
2018-08-03T03:31:57.466Z,18.80
2018-08-03T03:34:32.870Z,18.90
2018-08-03T03:37:07.618Z,18.80
2018-08-03T03:39:42.569Z,18.80
2018-08-03T03:42:17.477Z,18.70
2018-08-03T03:44:52.213Z,18.60
2018-08-03T03:47:27.192Z,18.70
2018-08-03T03:50:02.287Z,18.80
2018-08-03T03:52:37.066Z,18.70
2018-08-03T03:55:11.840Z,18.80
2018-08-03T03:57:47.028Z,18.80
2018-08-03T04:00:21.766Z,18.80
2018-08-03T04:02:56.649Z,18.80
2018-08-03T04:05:31.233Z,18.80
2018-08-03T04:08:06.329Z,18.70
2018-08-03T04:10:40.998Z,18.60
2018-08-03T04:13:15.844Z,18.70
2018-08-03T04:15:50.550Z,18.80
2018-08-03T04:18:25.198Z,18.80
2018-08-03T04:21:00.336Z,18.80
2018-08-03T04:23:34.921Z,18.80
2018-08-03T04:26:09.545Z,18.80
2018-08-03T04:28:44.269Z,18.70
2018-08-03T04:31:18.918Z,18.80
2018-08-03T04:33:53.797Z,18.80
2018-08-03T04:36:28.541Z,18.80
2018-08-03T04:39:05.194Z,18.90
2018-08-03T04:41:40.831Z,18.90
2018-08-03T04:44:16.554Z,19.00
2018-08-03T04:46:51.361Z,19.00
2018-08-03T04:49:26.124Z,18.90
2018-08-03T04:52:01.517Z,19.00
2018-08-03T04:54:36.334Z,19.00
2018-08-03T04:57:11.605Z,19.10
2018-08-03T04:59:46.510Z,19.20
2018-08-03T05:02:21.262Z,19.10
2018-08-03T05:04:56.288Z,19.10
2018-08-03T05:07:31.546Z,19.10
2018-08-03T05:10:06.634Z,19.20
2018-08-03T05:12:41.338Z,19.40
2018-08-03T05:15:16.241Z,19.60
2018-08-03T05:17:50.983Z,19.50
2018-08-03T05:20:25.836Z,19.50
2018-08-03T05:23:01.117Z,19.50
2018-08-03T05:25:36.601Z,19.70
2018-08-03T05:28:12.237Z,19.90
2018-08-03T05:30:47.069Z,20.00
2018-08-03T05:33:22.521Z,20.00
2018-08-03T05:35:57.932Z,20.10
2018-08-03T05:38:33.374Z,20.10
2018-08-03T05:41:08.689Z,20.20
2018-08-03T05:43:45.550Z,20.30
2018-08-03T05:46:21.041Z,20.40
2018-08-03T05:48:56.331Z,20.40
2018-08-03T05:51:31.737Z,20.40
2018-08-03T05:54:07.379Z,20.60
2018-08-03T05:56:43.467Z,20.70
2018-08-03T05:59:18.634Z,20.70
2018-08-03T06:01:54.025Z,20.70
2018-08-03T06:04:29.477Z,20.90
2018-08-03T06:07:04.835Z,21.00
2018-08-03T06:09:40.302Z,21.10
2018-08-03T06:12:16.328Z,21.20
2018-08-03T06:14:51.668Z,21.30
2018-08-03T06:17:27.268Z,21.20
2018-08-03T06:20:02.962Z,21.30
2018-08-03T06:22:38.530Z,21.40
2018-08-03T06:25:13.852Z,21.60
2018-08-03T06:27:49.239Z,21.70
2018-08-03T06:30:24.788Z,21.80
2018-08-03T06:33:00.166Z,21.90
2018-08-03T06:35:35.616Z,22.00
2018-08-03T06:38:11.198Z,22.00
2018-08-03T06:40:46.657Z,22.10
2018-08-03T06:43:22.026Z,22.20
2018-08-03T06:45:57.543Z,22.30
2018-08-03T06:48:33.723Z,22.40
2018-08-03T06:51:09.173Z,22.40
2018-08-03T06:53:44.839Z,22.50
2018-08-03T06:56:20.638Z,22.60
2018-08-03T06:58:55.990Z,22.70
2018-08-03T07:01:31.462Z,22.80
2018-08-03T07:04:07.093Z,22.90
2018-08-03T07:06:42.450Z,23.00
2018-08-03T07:09:17.972Z,23.10
2018-08-03T07:11:53.334Z,23.10
2018-08-03T07:14:28.818Z,23.20
2018-08-03T07:17:04.238Z,23.30
2018-08-03T07:19:39.689Z,23.40
2018-08-03T07:22:14.917Z,23.50
2018-08-03T07:24:50.442Z,23.60
2018-08-03T07:27:25.878Z,23.70
2018-08-03T07:30:01.285Z,23.90
2018-08-03T07:32:36.729Z,23.90
2018-08-03T07:35:12.233Z,23.90
2018-08-03T07:37:47.766Z,24.10
2018-08-03T07:40:23.372Z,24.20
2018-08-03T07:42:58.763Z,24.40
2018-08-03T07:45:34.851Z,24.50
2018-08-03T07:48:10.050Z,24.70
2018-08-03T07:50:45.506Z,24.80
2018-08-03T07:53:21.100Z,25.00
2018-08-03T07:55:56.473Z,25.20
2018-08-03T07:58:31.846Z,25.30
2018-08-03T08:01:07.680Z,25.40
2018-08-03T08:03:42.975Z,25.50
2018-08-03T08:06:18.402Z,25.60
2018-08-03T08:08:53.965Z,25.70
2018-08-03T08:11:29.468Z,25.80
2018-08-03T08:14:04.931Z,26.00
2018-08-03T08:16:40.347Z,26.10
2018-08-03T08:19:15.819Z,26.20
2018-08-03T08:21:51.261Z,26.20
2018-08-03T08:24:26.991Z,26.30
2018-08-03T08:27:02.245Z,26.50
2018-08-03T08:29:37.720Z,26.70
2018-08-03T08:32:13.783Z,26.80
2018-08-03T08:34:49.294Z,26.90
2018-08-03T08:37:25.389Z,27.10
2018-08-03T08:40:00.860Z,27.20
2018-08-03T08:42:36.687Z,27.30
2018-08-03T08:47:46.865Z,27.40
2018-08-03T08:50:22.190Z,27.70
2018-08-03T08:52:58.034Z,27.80
2018-08-03T08:55:33.670Z,28.00
2018-08-03T08:58:09.004Z,28.20
2018-08-03T09:00:44.943Z,28.00
2018-08-03T09:03:20.770Z,28.40
2018-08-03T09:05:57.073Z,28.40
2018-08-03T09:08:32.999Z,28.70
2018-08-03T09:11:09.235Z,28.80
2018-08-03T09:13:45.106Z,29.00
2018-08-03T09:16:20.951Z,29.20
2018-08-03T09:18:57.043Z,29.30
2018-08-03T09:21:32.774Z,29.60
2018-08-03T09:24:09.301Z,29.70
2018-08-03T09:26:44.712Z,30.10
2018-08-03T09:29:20.168Z,30.70
2018-08-03T09:31:55.736Z,31.10
2018-08-03T09:34:30.644Z,31.80
2018-08-03T09:37:05.781Z,32.10
2018-08-03T09:39:41.030Z,32.40
2018-08-03T09:42:16.121Z,32.80
2018-08-03T09:44:51.157Z,32.90
2018-08-03T09:47:26.158Z,33.30
2018-08-03T09:50:01.268Z,33.60
2018-08-03T09:52:37.113Z,33.40
2018-08-03T09:55:12.731Z,33.40
2018-08-03T09:57:48.008Z,33.20
2018-08-03T10:00:29.162Z,33.80
2018-08-03T10:03:05.082Z,34.00
2018-08-03T10:05:40.171Z,34.50
2018-08-03T10:08:15.328Z,34.00
2018-08-03T10:10:50.353Z,34.40
2018-08-03T10:13:26.053Z,34.70
2018-08-03T10:16:01.100Z,34.80
2018-08-03T10:18:36.681Z,34.70
2018-08-03T10:21:12.477Z,34.80
2018-08-03T10:23:47.706Z,35.30
2018-08-03T10:26:23.248Z,35.00
2018-08-03T10:28:58.285Z,34.20
2018-08-03T10:31:33.345Z,34.70
2018-08-03T10:34:08.453Z,34.60
2018-08-03T10:36:43.609Z,35.00
2018-08-03T10:39:18.661Z,35.40
2018-08-03T10:41:53.674Z,35.50
2018-08-03T10:44:28.806Z,35.70
2018-08-03T10:47:03.961Z,35.80
2018-08-03T10:49:39.484Z,36.40
2018-08-03T10:52:14.488Z,36.50
2018-08-03T10:54:49.939Z,35.60
2018-08-03T10:57:25.173Z,36.20
2018-08-03T11:00:00.754Z,36.80
2018-08-03T11:02:36.094Z,36.40
2018-08-03T11:05:11.345Z,36.10
2018-08-03T11:07:46.860Z,36.10
2018-08-03T11:10:21.910Z,36.20
2018-08-03T11:12:57.068Z,37.00
2018-08-03T11:15:32.062Z,37.20
2018-08-03T11:18:08.022Z,36.80
2018-08-03T11:20:43.482Z,36.60
2018-08-03T11:23:18.507Z,36.10
2018-08-03T11:25:53.626Z,36.30
2018-08-03T11:28:28.765Z,36.20
2018-08-03T11:31:04.201Z,36.10
2018-08-03T11:33:39.402Z,36.80
2018-08-03T11:36:14.589Z,36.80
2018-08-03T11:38:49.640Z,36.00
2018-08-03T11:41:25.070Z,36.50
2018-08-03T11:44:01.814Z,37.80
2018-08-03T11:46:36.758Z,37.10
2018-08-03T11:49:11.913Z,37.20
2018-08-03T11:51:47.245Z,36.60
2018-08-03T11:54:22.273Z,37.60
2018-08-03T11:56:57.440Z,38.40
2018-08-03T11:59:32.572Z,37.90
2018-08-03T12:02:07.897Z,37.40
2018-08-03T12:04:42.869Z,37.90
2018-08-03T12:07:18.105Z,39.40
2018-08-03T12:09:53.105Z,38.40
2018-08-03T12:12:28.350Z,38.20
2018-08-03T12:15:03.685Z,38.60
2018-08-03T12:17:38.763Z,38.60
2018-08-03T12:20:13.974Z,39.20
2018-08-03T12:22:49.220Z,38.70
2018-08-03T12:25:24.190Z,37.90
2018-08-03T12:27:59.302Z,37.00
2018-08-03T12:30:35.116Z,38.10
2018-08-03T12:33:10.153Z,37.90
2018-08-03T12:35:45.130Z,38.80
2018-08-03T12:38:20.585Z,39.20
2018-08-03T12:40:56.312Z,38.60
2018-08-03T12:43:31.418Z,38.90
2018-08-03T12:46:06.827Z,36.90
2018-08-03T12:48:41.906Z,36.90
2018-08-03T12:51:16.936Z,37.30
2018-08-03T12:53:52.544Z,36.70
2018-08-03T12:56:28.159Z,36.60
2018-08-03T12:59:06.164Z,37.30
2018-08-03T13:01:41.250Z,37.40
2018-08-03T13:04:16.259Z,39.00
2018-08-03T13:06:52.061Z,38.40
2018-08-03T13:09:27.056Z,37.90
2018-08-03T13:12:02.525Z,37.30
2018-08-03T13:14:37.855Z,37.80
2018-08-03T13:17:12.882Z,38.10
2018-08-03T13:19:48.024Z,38.90
2018-08-03T13:22:24.380Z,38.90
2018-08-03T13:24:59.262Z,37.50
2018-08-03T13:27:34.361Z,37.80
2018-08-03T13:30:09.610Z,39.40
2018-08-03T13:32:44.839Z,39.40
2018-08-03T13:35:20.295Z,38.20
2018-08-03T13:37:55.578Z,39.40
2018-08-03T13:40:30.860Z,38.20
2018-08-03T13:43:05.974Z,37.60
2018-08-03T13:45:41.177Z,37.80
2018-08-03T13:48:17.134Z,38.30
2018-08-03T13:50:53.262Z,39.20
2018-08-03T13:53:28.734Z,39.60
2018-08-03T13:56:04.365Z,38.60
2018-08-03T13:58:40.330Z,37.20
2018-08-03T14:01:26.787Z,36.50
2018-08-03T14:04:02.064Z,36.60
2018-08-03T14:06:37.230Z,35.90
2018-08-03T14:09:12.452Z,35.30
2018-08-03T14:11:47.385Z,34.80
2018-08-03T14:14:22.576Z,35.50
2018-08-03T14:16:57.718Z,36.00
2018-08-03T14:19:32.802Z,37.10
2018-08-03T14:22:07.878Z,37.40
2018-08-03T14:24:43.068Z,37.50
2018-08-03T14:27:18.229Z,37.30
2018-08-03T14:29:53.429Z,37.30
2018-08-03T14:32:28.836Z,37.80
2018-08-03T14:35:03.801Z,38.80
2018-08-03T14:37:38.705Z,37.50
2018-08-03T14:40:13.633Z,37.80
2018-08-03T14:42:49.263Z,37.20
2018-08-03T14:45:24.575Z,37.40
2018-08-03T14:47:59.773Z,38.10
2018-08-03T14:50:35.049Z,37.30
2018-08-03T14:53:10.194Z,37.90
2018-08-03T14:55:45.552Z,37.90
2018-08-03T14:58:20.666Z,38.20
2018-08-03T15:00:55.646Z,37.60
2018-08-03T15:03:30.867Z,37.10
2018-08-03T15:06:06.573Z,37.20
2018-08-03T15:08:41.798Z,37.90
2018-08-03T15:11:16.837Z,36.90
2018-08-03T15:13:51.836Z,37.30
2018-08-03T15:16:28.028Z,38.40
2018-08-03T15:19:03.498Z,38.10
2018-08-03T15:21:38.674Z,37.80
2018-08-03T15:24:13.729Z,36.60
2018-08-03T15:26:48.878Z,35.40
2018-08-03T15:29:24.566Z,35.80
2018-08-03T15:31:59.706Z,35.90
2018-08-03T15:34:34.694Z,37.10
2018-08-03T15:37:09.847Z,36.70
2018-08-03T15:39:44.911Z,37.10
2018-08-03T15:42:20.442Z,37.10
2018-08-03T15:44:55.514Z,37.60
2018-08-03T15:47:30.903Z,37.40
2018-08-03T15:50:06.960Z,35.90
2018-08-03T15:52:42.112Z,36.00
2018-08-03T15:55:17.353Z,36.10
2018-08-03T15:57:53.284Z,36.30
2018-08-03T16:00:28.456Z,36.20
2018-08-03T16:03:03.742Z,36.10
2018-08-03T16:05:38.630Z,36.10
2018-08-03T16:08:13.815Z,36.40
2018-08-03T16:10:49.272Z,35.90
2018-08-03T16:13:24.505Z,35.90
2018-08-03T16:15:59.579Z,36.60
2018-08-03T16:18:34.870Z,36.60
2018-08-03T16:21:10.314Z,36.10
2018-08-03T16:23:45.470Z,36.40
2018-08-03T16:26:20.397Z,35.50
2018-08-03T16:28:55.933Z,35.70
2018-08-03T16:31:31.948Z,35.60
2018-08-03T16:34:08.227Z,36.50
2018-08-03T16:36:43.692Z,36.70
2018-08-03T16:39:18.641Z,36.00
2018-08-03T16:41:53.879Z,36.10
2018-08-03T16:44:29.022Z,36.50
2018-08-03T16:47:04.034Z,35.10
2018-08-03T16:49:39.045Z,35.30
2018-08-03T16:52:14.225Z,35.40
2018-08-03T16:54:49.550Z,34.80
2018-08-03T16:57:24.626Z,35.20
2018-08-03T17:02:34.401Z,35.60
2018-08-03T17:05:09.427Z,35.60
2018-08-03T17:07:44.538Z,34.90
2018-08-03T17:10:19.523Z,34.90
2018-08-03T17:12:54.726Z,34.30
2018-08-03T17:15:29.887Z,33.90
2018-08-03T17:18:05.288Z,33.40
2018-08-03T17:20:40.355Z,33.70
2018-08-03T17:23:16.053Z,33.60
2018-08-03T17:25:51.357Z,33.60
2018-08-03T17:28:26.514Z,33.20
2018-08-03T17:31:01.489Z,33.20
2018-08-03T17:33:37.341Z,33.10
2018-08-03T17:36:12.401Z,33.00
2018-08-03T17:38:47.832Z,32.70
2018-08-03T17:41:23.170Z,32.70
2018-08-03T17:43:58.308Z,32.70
2018-08-03T17:46:34.331Z,32.70
2018-08-03T17:49:10.178Z,32.80
2018-08-03T17:51:45.166Z,32.30
2018-08-03T17:54:20.163Z,32.20
2018-08-03T17:56:55.581Z,32.30
2018-08-03T17:59:30.550Z,32.00
2018-08-03T18:02:05.572Z,32.20
2018-08-03T18:04:41.114Z,32.10
2018-08-03T18:07:16.983Z,31.90
2018-08-03T18:09:52.493Z,31.80
2018-08-03T18:12:27.946Z,31.90
2018-08-03T18:15:03.535Z,31.70
2018-08-03T18:17:38.956Z,31.70
2018-08-03T18:20:14.486Z,31.60
2018-08-03T18:22:50.312Z,31.50
2018-08-03T18:25:25.774Z,31.40
2018-08-03T18:28:02.205Z,31.30
2018-08-03T18:30:37.805Z,31.30
2018-08-03T18:33:13.214Z,31.10
2018-08-03T18:35:48.789Z,30.90
2018-08-03T18:38:24.110Z,30.70
2018-08-03T18:40:59.548Z,30.80
2018-08-03T18:43:34.936Z,30.90
2018-08-03T18:46:10.373Z,30.60
2018-08-03T18:48:46.485Z,30.60
2018-08-03T18:51:22.536Z,30.60
2018-08-03T18:53:58.188Z,30.40
2018-08-03T18:56:34.561Z,30.30
2018-08-03T18:59:09.974Z,30.10
2018-08-03T19:01:45.413Z,30.00
2018-08-03T19:04:20.799Z,29.90
2018-08-03T19:06:56.196Z,29.60
2018-08-03T19:09:31.498Z,29.50
2018-08-03T19:12:06.692Z,29.20
2018-08-03T19:14:42.076Z,29.00
2018-08-03T19:17:17.479Z,29.10
2018-08-03T19:19:52.925Z,29.10
2018-08-03T19:22:28.349Z,29.00
2018-08-03T19:25:03.800Z,28.90
2018-08-03T19:27:39.245Z,28.70
2018-08-03T19:30:15.417Z,28.60
2018-08-03T19:32:51.714Z,28.50
2018-08-03T19:35:27.582Z,28.40
2018-08-03T19:38:03.050Z,28.30
2018-08-03T19:40:38.415Z,27.90
2018-08-03T19:43:13.739Z,28.10
2018-08-03T19:45:49.201Z,28.20
2018-08-03T19:48:24.542Z,28.20
2018-08-03T19:50:59.969Z,28.20
2018-08-03T19:53:35.393Z,28.10
2018-08-03T19:56:10.946Z,28.00
2018-08-03T19:58:46.681Z,27.90
2018-08-03T20:01:22.226Z,27.70
2018-08-03T20:03:57.978Z,27.50
2018-08-03T20:06:33.718Z,27.50
2018-08-03T20:09:11.588Z,27.30
2018-08-03T20:11:47.376Z,27.20
2018-08-03T20:14:23.521Z,27.20
2018-08-03T20:16:58.812Z,27.20
2018-08-03T20:19:34.443Z,27.20
2018-08-03T20:22:16.458Z,27.10
2018-08-03T20:24:52.022Z,26.70
2018-08-03T20:27:27.464Z,26.70
2018-08-03T20:30:02.988Z,26.80
2018-08-03T20:32:38.665Z,26.70
2018-08-03T20:35:15.007Z,26.60
2018-08-03T20:37:50.459Z,26.50
2018-08-03T20:40:25.861Z,26.50
2018-08-03T20:43:01.974Z,26.30
2018-08-03T20:45:37.641Z,26.00
2018-08-03T20:48:13.321Z,26.00
2018-08-03T20:50:48.713Z,25.70
2018-08-03T20:53:24.133Z,25.60
2018-08-03T20:55:59.516Z,25.60
2018-08-03T20:58:35.226Z,25.80
2018-08-03T21:01:10.990Z,25.70
2018-08-03T21:03:46.503Z,25.60
2018-08-03T21:06:21.881Z,25.40
2018-08-03T21:08:57.241Z,25.20
2018-08-03T21:11:33.122Z,25.00
2018-08-03T21:14:08.642Z,25.10
2018-08-03T21:16:43.894Z,25.20
2018-08-03T21:19:19.212Z,25.10
2018-08-03T21:21:54.562Z,25.20
2018-08-03T21:24:29.996Z,25.10
2018-08-03T21:27:05.794Z,25.00
2018-08-03T21:29:41.117Z,24.70
2018-08-03T21:32:16.530Z,24.60
2018-08-03T21:34:52.725Z,24.60
2018-08-03T21:37:28.074Z,24.50
2018-08-03T21:40:03.773Z,24.60
2018-08-03T21:42:39.173Z,24.60
2018-08-03T21:45:14.613Z,24.70
2018-08-03T21:47:49.926Z,24.70
2018-08-03T21:50:25.393Z,24.40
2018-08-03T21:53:00.629Z,24.20
2018-08-03T21:55:36.733Z,24.10
2018-08-03T21:58:12.509Z,23.90
2018-08-03T22:00:48.976Z,23.80
2018-08-03T22:03:24.515Z,23.60
2018-08-03T22:06:00.151Z,23.70
2018-08-03T22:08:35.549Z,23.80
2018-08-03T22:11:11.037Z,23.90
2018-08-03T22:13:46.409Z,23.90
2018-08-03T22:16:21.933Z,23.90
2018-08-03T22:18:57.331Z,23.90
2018-08-03T22:21:32.864Z,23.80
2018-08-03T22:24:08.323Z,23.80
2018-08-03T22:26:43.807Z,23.80
2018-08-03T22:29:19.159Z,23.80
2018-08-03T22:31:54.697Z,23.60
2018-08-03T22:34:30.216Z,23.60
2018-08-03T22:37:05.705Z,23.60
2018-08-03T22:39:41.114Z,23.40
2018-08-03T22:42:16.406Z,23.40
2018-08-03T22:44:51.797Z,23.30
2018-08-03T22:47:27.172Z,23.30
2018-08-03T22:50:02.985Z,23.10
2018-08-03T22:52:38.246Z,23.10
2018-08-03T22:55:13.589Z,23.10
2018-08-03T22:57:49.226Z,23.10
2018-08-03T23:00:24.564Z,23.10
2018-08-03T23:03:00.310Z,23.10
2018-08-03T23:05:35.642Z,23.00
2018-08-03T23:08:11.182Z,23.10
2018-08-03T23:10:46.689Z,23.00
2018-08-03T23:13:22.161Z,23.00
2018-08-03T23:15:57.648Z,23.00
2018-08-03T23:18:33.790Z,22.90
2018-08-03T23:21:09.113Z,22.80
2018-08-03T23:23:44.583Z,22.80
2018-08-03T23:26:20.120Z,22.80
2018-08-03T23:28:55.643Z,22.80
2018-08-03T23:31:31.035Z,22.80
2018-08-03T23:34:06.454Z,22.40
2018-08-03T23:36:41.745Z,22.40
2018-08-03T23:39:17.195Z,22.50
2018-08-03T23:41:52.438Z,22.50
2018-08-03T23:44:28.512Z,22.40
2018-08-03T23:47:03.991Z,22.40
2018-08-03T23:49:39.986Z,22.30
2018-08-03T23:52:15.673Z,22.20
2018-08-03T23:54:51.181Z,22.30
2018-08-03T23:57:26.569Z,22.20
